createdAt,value
2018-08-07T00:01:13.011Z,23.53
2018-08-07T00:03:41.123Z,23.42
2018-08-07T00:06:09.506Z,23.31
2018-08-07T00:08:37.607Z,23.29
2018-08-07T00:11:05.746Z,23.28
2018-08-07T00:13:33.849Z,23.19
2018-08-07T00:16:01.936Z,23.19
2018-08-07T00:18:30.061Z,23.28
2018-08-07T00:20:58.148Z,23.44
2018-08-07T00:23:26.250Z,23.43
2018-08-07T00:25:54.347Z,23.30
2018-08-07T00:28:23.447Z,23.33
2018-08-07T00:30:51.534Z,23.37
2018-08-07T00:33:23.618Z,23.32
2018-08-07T00:35:51.698Z,23.40
2018-08-07T00:38:19.836Z,23.23
2018-08-07T00:40:47.946Z,23.28
2018-08-07T00:43:16.034Z,23.28
2018-08-07T00:45:44.295Z,23.21
2018-08-07T00:48:12.429Z,23.16
2018-08-07T00:50:40.519Z,23.15
2018-08-07T00:53:08.717Z,23.22
2018-08-07T00:55:36.869Z,23.20
2018-08-07T00:58:04.960Z,23.16
2018-08-07T01:00:33.072Z,23.01
2018-08-07T01:03:01.160Z,23.11
2018-08-07T01:05:29.244Z,23.16
2018-08-07T01:07:58.180Z,23.10
2018-08-07T01:10:26.269Z,22.88
2018-08-07T01:12:55.653Z,22.94
2018-08-07T01:15:23.751Z,22.65
2018-08-07T01:17:52.163Z,22.41
2018-08-07T01:20:22.014Z,22.49
2018-08-07T01:22:50.113Z,22.61
2018-08-07T01:25:23.129Z,22.63
2018-08-07T01:27:51.316Z,22.66
2018-08-07T01:30:23.107Z,22.57
2018-08-07T01:32:51.392Z,22.61
2018-08-07T01:35:19.631Z,22.55
2018-08-07T01:37:47.702Z,22.45
2018-08-07T01:40:15.821Z,22.26
2018-08-07T01:42:43.975Z,22.15
2018-08-07T01:45:12.079Z,22.14
2018-08-07T01:47:40.530Z,22.17
2018-08-07T01:50:11.381Z,22.21
2018-08-07T01:52:39.467Z,22.25
2018-08-07T01:55:09.158Z,22.44
2018-08-07T01:57:37.252Z,22.44
2018-08-07T02:00:07.673Z,22.48
2018-08-07T02:02:36.087Z,22.43
2018-08-07T02:05:05.574Z,22.45
2018-08-07T02:07:33.646Z,22.42
2018-08-07T02:10:01.759Z,22.33
2018-08-07T02:12:29.859Z,22.42
2018-08-07T02:14:57.971Z,22.52
2018-08-07T02:17:26.299Z,22.62
2018-08-07T02:19:54.396Z,22.75
2018-08-07T02:22:22.518Z,22.55
2018-08-07T02:24:50.851Z,22.49
2018-08-07T02:27:18.963Z,22.43
2018-08-07T02:29:47.084Z,22.37
2018-08-07T02:32:15.199Z,22.24
2018-08-07T02:34:43.752Z,22.18
2018-08-07T02:37:11.924Z,22.22
2018-08-07T02:39:40.008Z,21.84
2018-08-07T02:42:08.231Z,21.98
2018-08-07T02:44:36.450Z,21.61
2018-08-07T02:47:04.551Z,21.46
2018-08-07T02:49:32.648Z,21.29
2018-08-07T02:52:00.735Z,21.10
2018-08-07T02:54:29.327Z,21.14
2018-08-07T02:56:57.461Z,21.16
2018-08-07T02:59:25.580Z,21.24
2018-08-07T03:01:53.672Z,21.28
2018-08-07T03:04:21.781Z,21.24
2018-08-07T03:06:49.886Z,21.26
2018-08-07T03:09:17.970Z,21.31
2018-08-07T03:11:46.063Z,21.24
2018-08-07T03:14:14.181Z,21.16
2018-08-07T03:16:42.278Z,21.15
2018-08-07T03:19:10.372Z,21.07
2018-08-07T03:21:38.457Z,21.05
2018-08-07T03:24:06.539Z,21.00
2018-08-07T03:26:34.653Z,20.98
2018-08-07T03:29:02.737Z,20.98
2018-08-07T03:31:31.053Z,20.89
2018-08-07T03:33:59.139Z,21.01
2018-08-07T03:36:27.257Z,20.98
2018-08-07T03:38:55.402Z,21.13
2018-08-07T03:41:23.523Z,21.00
2018-08-07T03:43:51.658Z,20.98
2018-08-07T03:46:19.759Z,21.02
2018-08-07T03:48:47.844Z,21.01
2018-08-07T03:51:15.951Z,21.00
2018-08-07T03:53:44.111Z,20.90
2018-08-07T03:56:12.249Z,20.85
2018-08-07T03:58:41.076Z,20.85
2018-08-07T04:01:09.524Z,20.87
2018-08-07T04:03:37.631Z,20.85
2018-08-07T04:06:05.755Z,20.87
2018-08-07T04:08:33.891Z,20.92
2018-08-07T04:11:02.000Z,21.10
2018-08-07T04:13:30.096Z,21.24
2018-08-07T04:15:58.259Z,21.24
2018-08-07T04:18:26.348Z,21.13
2018-08-07T04:20:54.447Z,21.01
2018-08-07T04:23:22.564Z,20.72
2018-08-07T04:25:50.659Z,20.60
2018-08-07T04:28:18.766Z,20.58
2018-08-07T04:30:46.888Z,20.88
2018-08-07T04:33:14.978Z,21.11
2018-08-07T04:35:43.626Z,21.15
2018-08-07T04:38:11.735Z,21.16
2018-08-07T04:40:44.898Z,21.13
2018-08-07T04:43:13.055Z,21.22
2018-08-07T04:45:41.429Z,21.39
2018-08-07T04:48:09.554Z,21.39
2018-08-07T04:50:37.639Z,21.41
2018-08-07T04:53:05.725Z,21.29
2018-08-07T04:55:34.810Z,21.35
2018-08-07T04:58:02.970Z,21.43
2018-08-07T05:00:31.035Z,21.57
2018-08-07T05:02:59.131Z,21.71
2018-08-07T05:05:27.244Z,21.61
2018-08-07T05:07:55.346Z,21.38
2018-08-07T05:10:23.492Z,21.36
2018-08-07T05:12:51.532Z,21.28
2018-08-07T05:15:19.624Z,21.18
2018-08-07T05:17:48.720Z,21.25
2018-08-07T05:20:16.852Z,21.33
2018-08-07T05:22:45.002Z,21.38
2018-08-07T05:25:13.641Z,21.48
2018-08-07T05:27:41.744Z,21.63
2018-08-07T05:30:11.368Z,21.86
2018-08-07T05:32:39.479Z,21.99
2018-08-07T05:35:07.755Z,22.13
2018-08-07T05:37:36.767Z,22.30
2018-08-07T05:40:05.249Z,22.27
2018-08-07T05:42:33.439Z,22.21
2018-08-07T05:45:01.689Z,22.54
2018-08-07T05:47:30.374Z,23.69
2018-08-07T05:49:58.575Z,25.63
2018-08-07T05:52:26.869Z,27.18
2018-08-07T05:54:54.956Z,28.60
2018-08-07T05:57:23.848Z,29.38
2018-08-07T05:59:51.950Z,30.15
2018-08-07T06:02:20.600Z,30.92
2018-08-07T06:04:48.743Z,31.63
2018-08-07T06:07:16.839Z,31.97
2018-08-07T06:09:44.995Z,32.11
2018-08-07T06:12:13.424Z,32.79
2018-08-07T06:14:41.536Z,33.14
2018-08-07T06:17:09.625Z,33.08
2018-08-07T06:19:37.800Z,33.34
2018-08-07T06:22:06.036Z,33.37
2018-08-07T06:24:34.134Z,33.64
2018-08-07T06:27:02.219Z,33.92
2018-08-07T06:29:36.978Z,34.28
2018-08-07T06:32:05.064Z,34.50
2018-08-07T06:34:33.144Z,34.02
2018-08-07T06:37:01.232Z,32.78
2018-08-07T06:39:29.339Z,31.49
2018-08-07T06:41:57.463Z,30.33
2018-08-07T06:44:25.824Z,29.32
2018-08-07T06:46:53.921Z,29.24
2018-08-07T06:49:22.009Z,29.10
2018-08-07T06:51:50.108Z,28.81
2018-08-07T06:54:18.238Z,28.81
2018-08-07T06:56:46.319Z,28.76
2018-08-07T06:59:14.404Z,28.58
2018-08-07T07:01:42.504Z,28.64
2018-08-07T07:04:10.600Z,28.64
2018-08-07T07:06:39.049Z,28.57
2018-08-07T07:09:09.414Z,28.61
2018-08-07T07:11:37.509Z,28.63
2018-08-07T07:14:06.041Z,28.58
2018-08-07T07:16:34.127Z,28.48
2018-08-07T07:19:02.246Z,28.29
2018-08-07T07:21:30.344Z,28.34
2018-08-07T07:23:58.425Z,28.48
2018-08-07T07:26:26.677Z,28.63
2018-08-07T07:28:54.779Z,28.69
2018-08-07T07:31:22.856Z,28.58
2018-08-07T07:33:51.228Z,28.70
2018-08-07T07:36:19.636Z,28.50
2018-08-07T07:38:47.735Z,28.22
2018-08-07T07:41:15.831Z,28.33
2018-08-07T07:43:44.035Z,28.70
2018-08-07T07:46:12.135Z,28.72
2018-08-07T07:48:40.227Z,28.96
2018-08-07T07:51:08.553Z,29.09
2018-08-07T07:53:36.632Z,29.20
2018-08-07T07:56:04.755Z,29.29
2018-08-07T07:58:32.846Z,29.35
2018-08-07T08:01:00.951Z,29.20
2018-08-07T08:03:29.041Z,29.05
2018-08-07T08:05:57.221Z,29.41
2018-08-07T08:08:25.344Z,29.65
2018-08-07T08:10:54.136Z,29.52
2018-08-07T08:13:22.231Z,29.60
2018-08-07T08:15:50.355Z,29.70
2018-08-07T08:18:18.445Z,29.78
2018-08-07T08:20:46.528Z,29.93
2018-08-07T08:23:14.649Z,30.03
2018-08-07T08:25:42.869Z,29.93
2018-08-07T08:28:11.492Z,29.95
2018-08-07T08:30:39.586Z,29.93
2018-08-07T08:33:07.715Z,29.69
2018-08-07T08:35:36.888Z,29.86
2018-08-07T08:38:04.967Z,29.89
2018-08-07T08:40:33.989Z,30.25
2018-08-07T08:43:02.072Z,30.57
2018-08-07T08:45:30.154Z,30.78
2018-08-07T08:47:59.451Z,30.80
2018-08-07T08:50:28.039Z,30.97
2018-08-07T08:52:56.144Z,30.79
2018-08-07T08:58:17.081Z,30.81
2018-08-07T09:00:45.208Z,30.83
2018-08-07T09:03:13.320Z,31.04
2018-08-07T09:05:41.399Z,31.30
2018-08-07T09:08:09.504Z,31.49
2018-08-07T09:10:37.782Z,31.32
2018-08-07T09:13:06.231Z,31.32
2018-08-07T09:15:34.403Z,31.46
2018-08-07T09:18:02.534Z,31.60
2018-08-07T09:20:31.588Z,31.75
2018-08-07T09:22:59.863Z,31.97
2018-08-07T09:25:28.771Z,32.23
2018-08-07T09:27:56.768Z,32.24
2018-08-07T09:30:26.162Z,32.36
2018-08-07T09:32:55.053Z,32.30
2018-08-07T09:35:23.643Z,32.46
2018-08-07T09:37:51.781Z,32.26
2018-08-07T09:40:20.999Z,32.17
2018-08-07T09:42:50.423Z,31.69
2018-08-07T09:45:24.426Z,31.82
2018-08-07T09:47:52.516Z,31.98
2018-08-07T09:50:20.976Z,32.09
2018-08-07T09:52:49.565Z,32.44
2018-08-07T09:55:17.708Z,32.60
2018-08-07T09:57:45.884Z,32.76
2018-08-07T10:00:24.443Z,32.45
2018-08-07T10:03:30.106Z,32.39
2018-08-07T10:05:58.210Z,32.43
2018-08-07T10:08:27.157Z,32.53
2018-08-07T10:10:55.260Z,32.61
2018-08-07T10:13:23.362Z,32.56
2018-08-07T10:15:51.451Z,32.56
2018-08-07T10:18:19.571Z,32.15
2018-08-07T10:20:47.679Z,32.14
2018-08-07T10:23:16.045Z,31.88
2018-08-07T10:25:44.820Z,31.64
2018-08-07T10:28:12.936Z,31.55
2018-08-07T10:30:41.039Z,31.52
2018-08-07T10:33:09.120Z,31.45
2018-08-07T10:35:37.219Z,31.35
2018-08-07T10:38:05.307Z,31.27
2018-08-07T10:40:33.588Z,31.26
2018-08-07T10:43:01.739Z,31.03
2018-08-07T10:45:29.769Z,30.98
2018-08-07T10:47:57.887Z,30.84
2018-08-07T10:50:28.110Z,30.62
2018-08-07T10:52:58.335Z,30.56
2018-08-07T10:55:26.770Z,30.52
2018-08-07T10:57:57.421Z,30.51
2018-08-07T11:00:27.460Z,30.34
2018-08-07T11:02:56.219Z,30.25
2018-08-07T11:05:25.009Z,30.26
2018-08-07T11:07:53.151Z,30.13
2018-08-07T11:10:21.559Z,30.09
2018-08-07T11:12:49.940Z,30.07
2018-08-07T11:15:21.415Z,29.98
2018-08-07T11:17:50.700Z,29.91
2018-08-07T11:20:18.935Z,29.86
2018-08-07T11:22:48.792Z,29.80
2018-08-07T11:25:19.715Z,29.78
2018-08-07T11:27:47.853Z,29.69
2018-08-07T11:30:19.287Z,29.62
2018-08-07T11:32:49.132Z,29.53
2018-08-07T11:35:17.637Z,29.47
2018-08-07T11:37:46.749Z,29.42
2018-08-07T11:40:16.436Z,29.38
2018-08-07T11:42:45.913Z,29.31
2018-08-07T11:45:15.258Z,29.36
2018-08-07T11:47:43.375Z,29.37
2018-08-07T11:50:13.977Z,29.37
2018-08-07T11:52:42.075Z,29.36
2018-08-07T11:55:12.163Z,29.00
2018-08-07T11:57:40.279Z,29.11
2018-08-07T12:00:13.984Z,29.05
2018-08-07T12:02:42.100Z,28.94
2018-08-07T12:05:10.519Z,28.77
2018-08-07T12:07:39.468Z,28.70
2018-08-07T12:10:08.888Z,28.62
2018-08-07T12:12:36.992Z,28.37
2018-08-07T12:15:05.867Z,28.36
2018-08-07T12:17:33.975Z,28.17
2018-08-07T12:20:02.053Z,28.20
2018-08-07T12:22:30.171Z,28.07
2018-08-07T12:24:58.275Z,28.14
2018-08-07T12:27:26.344Z,28.23
2018-08-07T12:29:54.472Z,28.26
2018-08-07T12:32:22.631Z,28.40
2018-08-07T12:34:50.808Z,28.37
2018-08-07T12:37:18.909Z,28.18
2018-08-07T12:39:46.992Z,28.32
2018-08-07T12:42:15.079Z,28.25
2018-08-07T12:44:43.280Z,28.18
2018-08-07T12:47:11.371Z,28.14
2018-08-07T12:49:39.692Z,28.04
2018-08-07T12:52:07.996Z,28.07
2018-08-07T12:54:36.099Z,27.84
2018-08-07T12:57:04.201Z,27.58
2018-08-07T12:59:32.300Z,27.39
2018-08-07T13:02:00.395Z,27.34
2018-08-07T13:04:28.502Z,27.34
2018-08-07T13:06:56.612Z,27.43
2018-08-07T13:09:24.704Z,27.55
2018-08-07T13:11:52.815Z,27.44
2018-08-07T13:14:20.918Z,27.38
2018-08-07T13:16:49.006Z,27.71
2018-08-07T13:19:17.103Z,27.94
2018-08-07T13:21:45.214Z,28.14
2018-08-07T13:24:13.305Z,28.30
2018-08-07T13:26:41.737Z,28.40
2018-08-07T13:29:09.898Z,28.59
2018-08-07T13:31:38.053Z,28.49
2018-08-07T13:34:06.388Z,28.26
2018-08-07T13:36:35.002Z,28.30
2018-08-07T13:39:03.404Z,28.17
2018-08-07T13:41:32.679Z,28.01
2018-08-07T13:44:00.776Z,27.96
2018-08-07T13:46:28.879Z,27.90
2018-08-07T13:48:56.983Z,27.86
2018-08-07T13:51:25.071Z,27.73
2018-08-07T13:53:53.148Z,27.73
2018-08-07T13:56:21.640Z,27.57
2018-08-07T13:58:49.713Z,27.46
2018-08-07T14:01:18.099Z,27.44
2018-08-07T14:03:46.249Z,27.44
2018-08-07T14:06:14.325Z,27.41
2018-08-07T14:08:42.503Z,27.53
2018-08-07T14:11:10.644Z,27.45
2018-08-07T14:13:38.799Z,27.52
2018-08-07T14:16:06.908Z,27.63
2018-08-07T14:18:35.892Z,27.57
2018-08-07T14:21:05.018Z,27.63
2018-08-07T14:23:33.970Z,27.67
2018-08-07T14:26:02.069Z,27.75
2018-08-07T14:28:30.167Z,27.88
2018-08-07T14:30:58.272Z,28.02
2018-08-07T14:33:26.377Z,28.04
2018-08-07T14:35:54.479Z,28.00
2018-08-07T14:38:23.088Z,28.07
2018-08-07T14:40:51.411Z,28.32
2018-08-07T14:43:19.523Z,28.52
2018-08-07T14:45:47.615Z,28.96
2018-08-07T14:48:15.711Z,29.58
2018-08-07T14:50:43.833Z,30.11
2018-08-07T14:53:11.931Z,30.44
2018-08-07T14:55:40.004Z,30.76
2018-08-07T14:58:08.087Z,31.17
2018-08-07T15:00:36.176Z,31.46
2018-08-07T15:03:04.314Z,31.64
2018-08-07T15:05:32.404Z,31.68
2018-08-07T15:08:00.502Z,31.24
2018-08-07T15:10:28.744Z,31.25
2018-08-07T15:12:57.142Z,31.10
2018-08-07T15:15:27.018Z,31.19
2018-08-07T15:17:55.198Z,30.85
2018-08-07T15:20:25.028Z,30.79
2018-08-07T15:22:53.847Z,30.59
2018-08-07T15:25:22.459Z,30.29
2018-08-07T15:27:50.546Z,30.03
2018-08-07T15:30:20.927Z,30.21
2018-08-07T15:32:49.681Z,30.21
2018-08-07T15:35:18.917Z,29.81
2018-08-07T15:37:47.248Z,29.81
2018-08-07T15:40:16.017Z,29.61
2018-08-07T15:42:44.840Z,29.57
2018-08-07T15:45:14.164Z,29.62
2018-08-07T15:47:42.279Z,29.64
2018-08-07T15:50:13.219Z,29.46
2018-08-07T15:52:42.690Z,29.56
2018-08-07T15:55:12.364Z,29.69
2018-08-07T15:57:40.493Z,29.69
2018-08-07T16:00:19.039Z,29.03
2018-08-07T16:02:47.218Z,28.84
2018-08-07T16:05:15.582Z,28.59
2018-08-07T16:07:43.704Z,28.45
2018-08-07T16:10:14.842Z,28.35
2018-08-07T16:12:43.511Z,28.32
2018-08-07T16:15:11.751Z,28.18
2018-08-07T16:17:39.870Z,28.15
2018-08-07T16:20:08.535Z,28.02
2018-08-07T16:22:38.685Z,28.01
2018-08-07T16:25:08.164Z,27.82
2018-08-07T16:27:36.737Z,27.72
2018-08-07T16:30:08.629Z,27.66
2018-08-07T16:32:36.915Z,27.72
2018-08-07T16:35:05.704Z,27.70
2018-08-07T16:37:33.819Z,27.79
2018-08-07T16:40:02.238Z,27.88
2018-08-07T16:42:30.599Z,27.92
2018-08-07T16:44:59.097Z,27.83
2018-08-07T16:47:27.239Z,27.72
2018-08-07T16:49:55.596Z,27.81
2018-08-07T16:52:23.659Z,27.95
2018-08-07T16:54:51.781Z,28.00
2018-08-07T16:57:19.882Z,27.88
2018-08-07T16:59:47.999Z,27.89
2018-08-07T17:02:17.000Z,27.85
2018-08-07T17:04:45.445Z,27.82
2018-08-07T17:07:14.716Z,27.78
2018-08-07T17:09:42.847Z,27.67
2018-08-07T17:12:10.952Z,27.77
2018-08-07T17:14:39.687Z,27.71
2018-08-07T17:17:07.803Z,27.74
2018-08-07T17:19:36.446Z,27.64
2018-08-07T17:22:04.586Z,27.66
2018-08-07T17:24:32.668Z,27.59
2018-08-07T17:27:00.772Z,27.50
2018-08-07T17:29:28.889Z,27.46
2018-08-07T17:31:56.995Z,27.38
2018-08-07T17:34:26.085Z,27.37
2018-08-07T17:36:54.678Z,27.31
2018-08-07T17:39:22.771Z,27.13
2018-08-07T17:41:50.889Z,27.20
2018-08-07T17:44:19.030Z,27.10
2018-08-07T17:46:47.173Z,27.14
2018-08-07T17:49:15.639Z,26.94
2018-08-07T17:51:44.703Z,27.11
2018-08-07T17:54:12.927Z,26.87
2018-08-07T17:56:44.506Z,26.65
2018-08-07T17:59:12.651Z,26.64
2018-08-07T18:01:41.741Z,26.29
2018-08-07T18:04:10.003Z,26.27
2018-08-07T18:06:38.476Z,26.20
2018-08-07T18:09:09.231Z,26.08
2018-08-07T18:11:37.824Z,25.89
2018-08-07T18:14:06.195Z,25.79
2018-08-07T18:16:34.311Z,25.64
2018-08-07T18:19:02.681Z,25.48
2018-08-07T18:21:30.809Z,25.44
2018-08-07T18:23:59.116Z,25.41
2018-08-07T18:26:27.234Z,25.34
2018-08-07T18:28:55.348Z,25.35
2018-08-07T18:31:23.420Z,25.26
2018-08-07T18:33:51.779Z,25.17
2018-08-07T18:36:19.936Z,25.17
2018-08-07T18:38:48.237Z,25.07
2018-08-07T18:41:16.432Z,24.90
2018-08-07T18:43:44.543Z,24.94
2018-08-07T18:46:12.647Z,24.94
2018-08-07T18:48:40.757Z,24.82
2018-08-07T18:51:09.002Z,24.60
2018-08-07T18:53:36.987Z,24.63
2018-08-07T18:56:05.389Z,24.59
2018-08-07T18:58:33.648Z,24.49
2018-08-07T19:01:01.783Z,24.45
2018-08-07T19:03:29.871Z,24.29
2018-08-07T19:05:57.968Z,24.36
2018-08-07T19:08:26.075Z,24.28
2018-08-07T19:10:54.203Z,24.26
2018-08-07T19:13:22.300Z,24.12
2018-08-07T19:15:50.731Z,24.06
2018-08-07T19:18:18.859Z,23.99
2018-08-07T19:20:48.549Z,23.92
2018-08-07T19:23:16.636Z,23.82
2018-08-07T19:25:44.900Z,23.83
2018-08-07T19:28:13.127Z,23.68
2018-08-07T19:30:42.244Z,23.66
2018-08-07T19:33:11.296Z,23.69
2018-08-07T19:35:39.452Z,23.75
2018-08-07T19:38:07.748Z,23.81
2018-08-07T19:40:36.350Z,23.87
2018-08-07T19:43:04.458Z,23.84
2018-08-07T19:45:32.566Z,23.86
2018-08-07T19:48:00.803Z,23.83
2018-08-07T19:50:28.906Z,23.72
2018-08-07T19:52:57.034Z,23.64
2018-08-07T19:55:25.151Z,23.58
2018-08-07T19:57:53.276Z,23.51
2018-08-07T20:00:25.571Z,23.43
2018-08-07T20:02:54.284Z,23.37
2018-08-07T20:05:22.655Z,23.32
2018-08-07T20:07:51.344Z,23.45
2018-08-07T20:10:20.063Z,23.34
2018-08-07T20:12:48.171Z,23.27
2018-08-07T20:15:22.638Z,23.35
2018-08-07T20:17:51.324Z,23.33
2018-08-07T20:20:19.608Z,23.18
2018-08-07T20:22:47.743Z,23.18
2018-08-07T20:25:15.850Z,23.14
2018-08-07T20:27:43.964Z,23.11
2018-08-07T20:30:15.225Z,22.93
2018-08-07T20:32:44.049Z,22.85
2018-08-07T20:35:12.152Z,22.80
2018-08-07T20:37:40.293Z,22.83
2018-08-07T20:40:13.391Z,22.83
2018-08-07T20:42:41.488Z,22.84
2018-08-07T20:45:09.675Z,22.79
2018-08-07T20:47:39.124Z,22.81
2018-08-07T20:50:11.108Z,22.81
2018-08-07T20:52:39.796Z,22.81
2018-08-07T20:55:08.389Z,22.79
2018-08-07T20:57:36.767Z,22.80
2018-08-07T21:00:06.386Z,22.81
2018-08-07T21:02:34.554Z,22.76
2018-08-07T21:05:02.707Z,22.73
2018-08-07T21:07:30.784Z,22.68
2018-08-07T21:09:58.865Z,22.64
2018-08-07T21:12:27.085Z,22.73
2018-08-07T21:14:55.188Z,22.66
2018-08-07T21:17:23.288Z,22.55
2018-08-07T21:19:51.376Z,22.43
2018-08-07T21:22:19.588Z,22.27
2018-08-07T21:24:47.669Z,22.25
2018-08-07T21:27:15.787Z,22.25
2018-08-07T21:29:43.870Z,22.04
2018-08-07T21:32:13.447Z,21.91
2018-08-07T21:34:41.540Z,21.87
2018-08-07T21:37:09.859Z,21.85
2018-08-07T21:39:38.020Z,21.82
2018-08-07T21:42:06.124Z,21.77
2018-08-07T21:44:34.220Z,21.77
2018-08-07T21:47:02.300Z,21.72
2018-08-07T21:49:30.729Z,21.69
2018-08-07T21:51:58.819Z,21.76
2018-08-07T21:54:26.930Z,21.84
2018-08-07T21:56:55.015Z,21.93
2018-08-07T22:03:15.907Z,22.04
2018-08-07T22:05:44.032Z,22.06
2018-08-07T22:08:15.903Z,22.05
2018-08-07T22:10:44.122Z,21.97
2018-08-07T22:13:12.138Z,21.91
2018-08-07T22:15:40.912Z,21.82
2018-08-07T22:18:10.137Z,21.68
2018-08-07T22:20:38.260Z,21.51
2018-08-07T22:23:06.507Z,21.50
2018-08-07T22:25:34.596Z,21.53
2018-08-07T22:28:03.423Z,21.53
2018-08-07T22:30:31.534Z,21.61
2018-08-07T22:32:59.610Z,21.71
2018-08-07T22:35:28.079Z,21.81
2018-08-07T22:37:56.163Z,21.84
2018-08-07T22:40:24.290Z,21.90
2018-08-07T22:42:52.376Z,21.87
2018-08-07T22:45:20.491Z,21.86
2018-08-07T22:47:48.575Z,21.90
2018-08-07T22:50:17.912Z,21.84
2018-08-07T22:52:46.172Z,21.82
2018-08-07T22:55:16.202Z,21.81
2018-08-07T22:57:44.379Z,21.82
2018-08-07T23:00:14.410Z,21.80
2018-08-07T23:02:42.452Z,21.78
2018-08-07T23:05:11.363Z,21.75
2018-08-07T23:07:39.487Z,21.82
2018-08-07T23:10:12.019Z,21.89
2018-08-07T23:12:40.296Z,21.82
2018-08-07T23:15:10.203Z,21.92
2018-08-07T23:17:38.307Z,21.87
2018-08-07T23:20:07.063Z,21.91
2018-08-07T23:22:35.240Z,21.86
2018-08-07T23:25:03.519Z,21.75
2018-08-07T23:27:31.616Z,21.68
2018-08-07T23:29:59.747Z,21.50
2018-08-07T23:32:28.485Z,21.38
2018-08-07T23:34:56.620Z,21.41
2018-08-07T23:37:24.816Z,21.55
2018-08-07T23:39:52.906Z,21.54
2018-08-07T23:42:20.996Z,21.64
2018-08-07T23:44:49.154Z,21.53
2018-08-07T23:47:17.266Z,21.59
2018-08-07T23:49:45.436Z,21.58
2018-08-07T23:52:13.622Z,21.61
2018-08-07T23:54:41.724Z,21.59
2018-08-07T23:57:09.819Z,21.51
2018-08-07T23:59:37.953Z,21.57
